McSwain, Mississippi
Current Conditions -  °F | °C
As of 1:53 AM on Monday 22 Dec 2014 (Local Time) from KHBG Reporting Station
Haze Haze  
Wind Chill: 53°   Ceiling: 200
Heat Index: 53°   Visibility: 1.7mi
Dew Point: 52°   Wind: 5mph
Humidity: 96%   Direction: 80°E
Pressure: 29.92"   Gusts: NA
Location:  31.3326°N, 88.8854°W
Report Text: KHBG 220753Z AUTO 08004KT 1 3/4SM BR OVC002 12/11 A2992 RMK AO2 SLP132 T01170111
Loading
Personal Weather Stations






























Interactive Weather Map New forecast layout! Learn more

10-Day Weather Forecast

Advertisements
Track Severe Weather on mobile